sensor_id;sensor_type;location;lat;lon;timestamp;temperature;humidity
25360;DHT22;13311;51.386;0.016;2023-06-22T00:04:57;22.20;90.20
25360;DHT22;13311;51.386;0.016;2023-06-22T00:09:58;22.10;90.00
25360;DHT22;13311;51.386;0.016;2023-06-22T00:14:58;22.00;89.90
25360;DHT22;13311;51.386;0.016;2023-06-22T00:19:59;22.00;90.10
25360;DHT22;13311;51.386;0.016;2023-06-22T00:25:00;21.90;90.10
25360;DHT22;13311;51.386;0.016;2023-06-22T00:30:01;21.80;90.20
25360;DHT22;13311;51.386;0.016;2023-06-22T00:35:03;21.80;90.30
25360;DHT22;13311;51.386;0.016;2023-06-22T00:40:04;21.70;90.20
25360;DHT22;13311;51.386;0.016;2023-06-22T00:45:06;21.60;90.40
25360;DHT22;13311;51.386;0.016;2023-06-22T00:50:07;21.50;90.60
25360;DHT22;13311;51.386;0.016;2023-06-22T00:55:10;21.40;90.80
25360;DHT22;13311;51.386;0.016;2023-06-22T01:00:11;21.40;91.00
25360;DHT22;13311;51.386;0.016;2023-06-22T01:05:21;21.20;91.00
25360;DHT22;13311;51.386;0.016;2023-06-22T01:10:43;21.20;91.20
25360;DHT22;13311;51.386;0.016;2023-06-22T01:16:05;21.10;91.40
25360;DHT22;13311;51.386;0.016;2023-06-22T01:21:12;21.00;91.50
25360;DHT22;13311;51.386;0.016;2023-06-22T01:31:45;20.90;91.50
25360;DHT22;13311;51.386;0.016;2023-06-22T01:36:46;20.90;91.80
25360;DHT22;13311;51.386;0.016;2023-06-22T01:41:48;20.80;91.70
25360;DHT22;13311;51.386;0.016;2023-06-22T01:46:49;20.70;91.80
25360;DHT22;13311;51.386;0.016;2023-06-22T01:51:50;20.70;91.70
25360;DHT22;13311;51.386;0.016;2023-06-22T01:56:51;20.60;91.80
25360;DHT22;13311;51.386;0.016;2023-06-22T02:02:00;20.50;91.80
25360;DHT22;13311;51.386;0.016;2023-06-22T02:07:07;20.40;91.80
25360;DHT22;13311;51.386;0.016;2023-06-22T02:12:11;20.40;92.10
25360;DHT22;13311;51.386;0.016;2023-06-22T02:17:13;20.30;92.10
25360;DHT22;13311;51.386;0.016;2023-06-22T02:22:14;20.20;92.00
25360;DHT22;13311;51.386;0.016;2023-06-22T02:27:15;20.10;92.00
25360;DHT22;13311;51.386;0.016;2023-06-22T02:32:15;20.00;92.00
25360;DHT22;13311;51.386;0.016;2023-06-22T02:37:19;19.90;92.20
25360;DHT22;13311;51.386;0.016;2023-06-22T02:42:19;19.90;92.30
25360;DHT22;13311;51.386;0.016;2023-06-22T02:47:22;19.90;92.20
25360;DHT22;13311;51.386;0.016;2023-06-22T02:52:22;19.90;92.00
25360;DHT22;13311;51.386;0.016;2023-06-22T02:57:23;19.80;92.10
25360;DHT22;13311;51.386;0.016;2023-06-22T03:02:24;19.70;92.20
25360;DHT22;13311;51.386;0.016;2023-06-22T03:07:24;19.70;92.30
25360;DHT22;13311;51.386;0.016;2023-06-22T03:12:25;19.60;92.40
25360;DHT22;13311;51.386;0.016;2023-06-22T03:17:26;19.60;92.20
25360;DHT22;13311;51.386;0.016;2023-06-22T03:22:26;19.50;92.20
25360;DHT22;13311;51.386;0.016;2023-06-22T03:27:27;19.40;92.30
25360;DHT22;13311;51.386;0.016;2023-06-22T03:32:28;19.40;92.20
25360;DHT22;13311;51.386;0.016;2023-06-22T03:37:29;19.30;92.20
25360;DHT22;13311;51.386;0.016;2023-06-22T03:42:29;19.30;92.40
25360;DHT22;13311;51.386;0.016;2023-06-22T03:47:30;19.10;92.60
25360;DHT22;13311;51.386;0.016;2023-06-22T03:52:31;19.10;92.70
25360;DHT22;13311;51.386;0.016;2023-06-22T03:57:33;19.10;92.80
25360;DHT22;13311;51.386;0.016;2023-06-22T04:02:33;19.10;92.70
25360;DHT22;13311;51.386;0.016;2023-06-22T04:07:34;19.00;92.90
25360;DHT22;13311;51.386;0.016;2023-06-22T04:12:37;19.00;93.00
25360;DHT22;13311;51.386;0.016;2023-06-22T04:17:38;19.10;93.00
25360;DHT22;13311;51.386;0.016;2023-06-22T04:22:38;19.00;92.80
25360;DHT22;13311;51.386;0.016;2023-06-22T04:27:39;19.00;92.90
25360;DHT22;13311;51.386;0.016;2023-06-22T04:32:40;19.10;93.00
25360;DHT22;13311;51.386;0.016;2023-06-22T04:37:41;19.20;93.10
25360;DHT22;13311;51.386;0.016;2023-06-22T04:42:42;19.30;93.20
25360;DHT22;13311;51.386;0.016;2023-06-22T04:47:52;19.30;93.20
25360;DHT22;13311;51.386;0.016;2023-06-22T04:52:53;19.30;93.10
25360;DHT22;13311;51.386;0.016;2023-06-22T04:57:53;19.30;92.90
25360;DHT22;13311;51.386;0.016;2023-06-22T05:02:54;19.40;92.70
25360;DHT22;13311;51.386;0.016;2023-06-22T05:07:57;19.50;92.70
25360;DHT22;13311;51.386;0.016;2023-06-22T05:13:00;19.50;93.00
25360;DHT22;13311;51.386;0.016;2023-06-22T05:18:01;19.80;93.30
25360;DHT22;13311;51.386;0.016;2023-06-22T05:23:05;20.30;93.10
25360;DHT22;13311;51.386;0.016;2023-06-22T05:28:06;20.80;92.10
25360;DHT22;13311;51.386;0.016;2023-06-22T05:33:11;21.20;91.70
25360;DHT22;13311;51.386;0.016;2023-06-22T05:38:11;21.70;91.50
25360;DHT22;13311;51.386;0.016;2023-06-22T05:43:12;22.20;90.90
25360;DHT22;13311;51.386;0.016;2023-06-22T05:48:13;22.40;90.00
25360;DHT22;13311;51.386;0.016;2023-06-22T05:53:14;22.70;89.40
25360;DHT22;13311;51.386;0.016;2023-06-22T05:58:14;22.90;89.10
25360;DHT22;13311;51.386;0.016;2023-06-22T06:03:15;23.10;88.30
25360;DHT22;13311;51.386;0.016;2023-06-22T06:08:17;23.40;87.80
25360;DHT22;13311;51.386;0.016;2023-06-22T06:13:17;23.70;87.20
25360;DHT22;13311;51.386;0.016;2023-06-22T06:18:18;23.90;86.20
25360;DHT22;13311;51.386;0.016;2023-06-22T06:23:19;23.90;86.10
25360;DHT22;13311;51.386;0.016;2023-06-22T06:28:20;23.90;86.00
25360;DHT22;13311;51.386;0.016;2023-06-22T06:33:20;23.80;86.20
25360;DHT22;13311;51.386;0.016;2023-06-22T06:38:21;23.70;86.80
25360;DHT22;13311;51.386;0.016;2023-06-22T06:43:22;23.70;87.50
25360;DHT22;13311;51.386;0.016;2023-06-22T06:48:24;23.90;87.70
25360;DHT22;13311;51.386;0.016;2023-06-22T06:53:24;24.20;86.50
25360;DHT22;13311;51.386;0.016;2023-06-22T06:58:25;24.60;85.70
25360;DHT22;13311;51.386;0.016;2023-06-22T07:03:26;24.90;85.00
25360;DHT22;13311;51.386;0.016;2023-06-22T07:08:27;25.30;83.10
25360;DHT22;13311;51.386;0.016;2023-06-22T07:13:27;25.70;82.50
25360;DHT22;13311;51.386;0.016;2023-06-22T07:18:28;26.20;80.80
25360;DHT22;13311;51.386;0.016;2023-06-22T07:23:29;26.60;79.70
25360;DHT22;13311;51.386;0.016;2023-06-22T07:28:30;27.00;77.70
25360;DHT22;13311;51.386;0.016;2023-06-22T07:33:37;27.10;77.20
25360;DHT22;13311;51.386;0.016;2023-06-22T07:38:37;27.10;76.00
25360;DHT22;13311;51.386;0.016;2023-06-22T07:43:38;27.30;75.50
25360;DHT22;13311;51.386;0.016;2023-06-22T07:48:39;27.60;74.80
25360;DHT22;13311;51.386;0.016;2023-06-22T07:53:43;27.80;73.90
25360;DHT22;13311;51.386;0.016;2023-06-22T07:58:45;27.90;73.90
25360;DHT22;13311;51.386;0.016;2023-06-22T08:03:49;28.10;73.70
25360;DHT22;13311;51.386;0.016;2023-06-22T08:08:50;28.40;71.50
25360;DHT22;13311;51.386;0.016;2023-06-22T08:13:53;28.50;71.60
25360;DHT22;13311;51.386;0.016;2023-06-22T08:18:56;28.50;69.20
25360;DHT22;13311;51.386;0.016;2023-06-22T08:23:56;28.70;69.00
25360;DHT22;13311;51.386;0.016;2023-06-22T08:28:57;28.60;70.80
25360;DHT22;13311;51.386;0.016;2023-06-22T08:33:58;28.80;71.10
25360;DHT22;13311;51.386;0.016;2023-06-22T08:38:59;29.00;70.60
25360;DHT22;13311;51.386;0.016;2023-06-22T08:44:01;29.10;68.70
25360;DHT22;13311;51.386;0.016;2023-06-22T08:49:03;29.20;69.30
25360;DHT22;13311;51.386;0.016;2023-06-22T08:54:05;29.60;67.90
25360;DHT22;13311;51.386;0.016;2023-06-22T08:59:06;29.80;67.60
25360;DHT22;13311;51.386;0.016;2023-06-22T09:04:08;30.10;65.70
25360;DHT22;13311;51.386;0.016;2023-06-22T09:09:09;30.20;66.30
25360;DHT22;13311;51.386;0.016;2023-06-22T09:14:11;30.50;65.50
25360;DHT22;13311;51.386;0.016;2023-06-22T09:19:11;30.20;65.80
25360;DHT22;13311;51.386;0.016;2023-06-22T09:24:12;30.10;65.00
25360;DHT22;13311;51.386;0.016;2023-06-22T09:29:13;30.00;65.70
25360;DHT22;13311;51.386;0.016;2023-06-22T09:34:14;30.10;65.70
25360;DHT22;13311;51.386;0.016;2023-06-22T09:39:14;30.20;65.60
25360;DHT22;13311;51.386;0.016;2023-06-22T09:44:15;30.20;63.90
25360;DHT22;13311;51.386;0.016;2023-06-22T09:49:16;30.50;63.50
25360;DHT22;13311;51.386;0.016;2023-06-22T09:54:16;30.80;62.20
25360;DHT22;13311;51.386;0.016;2023-06-22T09:59:17;31.00;61.90
25360;DHT22;13311;51.386;0.016;2023-06-22T10:04:18;31.20;61.10
25360;DHT22;13311;51.386;0.016;2023-06-22T10:09:19;31.20;61.10
25360;DHT22;13311;51.386;0.016;2023-06-22T10:14:19;30.90;58.90
25360;DHT22;13311;51.386;0.016;2023-06-22T10:19:20;30.70;60.00
25360;DHT22;13311;51.386;0.016;2023-06-22T10:24:21;30.60;59.90
25360;DHT22;13311;51.386;0.016;2023-06-22T10:29:22;30.00;60.00
25360;DHT22;13311;51.386;0.016;2023-06-22T10:34:22;30.20;63.80
25360;DHT22;13311;51.386;0.016;2023-06-22T10:39:23;30.50;61.60
25360;DHT22;13311;51.386;0.016;2023-06-22T10:44:24;30.70;59.20
25360;DHT22;13311;51.386;0.016;2023-06-22T10:49:24;30.90;58.80
25360;DHT22;13311;51.386;0.016;2023-06-22T10:54:25;31.00;60.30
25360;DHT22;13311;51.386;0.016;2023-06-22T10:59:26;31.40;63.50
25360;DHT22;13311;51.386;0.016;2023-06-22T11:04:27;31.40;63.20
25360;DHT22;13311;51.386;0.016;2023-06-22T11:09:28;31.40;65.00
25360;DHT22;13311;51.386;0.016;2023-06-22T11:14:28;31.40;63.60
25360;DHT22;13311;51.386;0.016;2023-06-22T11:19:29;31.40;56.70
25360;DHT22;13311;51.386;0.016;2023-06-22T11:24:30;31.30;53.80
25360;DHT22;13311;51.386;0.016;2023-06-22T11:29:30;31.60;53.90
25360;DHT22;13311;51.386;0.016;2023-06-22T11:34:31;32.10;60.50
25360;DHT22;13311;51.386;0.016;2023-06-22T11:39:32;32.20;57.60
25360;DHT22;13311;51.386;0.016;2023-06-22T11:44:32;32.40;56.30
25360;DHT22;13311;51.386;0.016;2023-06-22T11:49:33;32.40;54.10
25360;DHT22;13311;51.386;0.016;2023-06-22T11:54:34;32.40;51.30
25360;DHT22;13311;51.386;0.016;2023-06-22T11:59:35;32.30;56.50
25360;DHT22;13311;51.386;0.016;2023-06-22T12:04:35;32.50;52.20
25360;DHT22;13311;51.386;0.016;2023-06-22T12:09:36;32.80;53.50
25360;DHT22;13311;51.386;0.016;2023-06-22T12:14:37;32.90;57.30
25360;DHT22;13311;51.386;0.016;2023-06-22T12:19:38;32.70;57.70
25360;DHT22;13311;51.386;0.016;2023-06-22T12:24:38;32.60;55.40
25360;DHT22;13311;51.386;0.016;2023-06-22T12:29:39;32.60;53.40
25360;DHT22;13311;51.386;0.016;2023-06-22T12:34:42;32.60;57.00
25360;DHT22;13311;51.386;0.016;2023-06-22T12:39:43;32.50;50.20
25360;DHT22;13311;51.386;0.016;2023-06-22T12:44:45;32.70;56.80
25360;DHT22;13311;51.386;0.016;2023-06-22T12:49:45;32.60;54.50
25360;DHT22;13311;51.386;0.016;2023-06-22T12:54:46;32.60;57.00
25360;DHT22;13311;51.386;0.016;2023-06-22T12:59:47;32.50;53.50
25360;DHT22;13311;51.386;0.016;2023-06-22T13:04:47;32.30;53.00
25360;DHT22;13311;51.386;0.016;2023-06-22T13:09:48;32.40;50.60
25360;DHT22;13311;51.386;0.016;2023-06-22T13:14:51;32.50;50.20
25360;DHT22;13311;51.386;0.016;2023-06-22T13:19:52;32.60;52.80
25360;DHT22;13311;51.386;0.016;2023-06-22T13:24:53;32.60;53.10
25360;DHT22;13311;51.386;0.016;2023-06-22T13:29:54;32.70;54.80
25360;DHT22;13311;51.386;0.016;2023-06-22T13:34:54;32.50;51.90
25360;DHT22;13311;51.386;0.016;2023-06-22T13:39:55;32.50;56.80
25360;DHT22;13311;51.386;0.016;2023-06-22T13:44:56;32.40;50.50
25360;DHT22;13311;51.386;0.016;2023-06-22T13:49:57;32.30;48.70
25360;DHT22;13311;51.386;0.016;2023-06-22T13:54:58;32.20;49.10
25360;DHT22;13311;51.386;0.016;2023-06-22T13:59:59;32.10;49.40
25360;DHT22;13311;51.386;0.016;2023-06-22T14:05:00;32.20;52.60
25360;DHT22;13311;51.386;0.016;2023-06-22T14:10:01;32.20;53.00
25360;DHT22;13311;51.386;0.016;2023-06-22T14:15:02;32.20;55.70
25360;DHT22;13311;51.386;0.016;2023-06-22T14:20:03;32.40;57.50
25360;DHT22;13311;51.386;0.016;2023-06-22T14:25:06;32.50;57.20
25360;DHT22;13311;51.386;0.016;2023-06-22T14:30:07;32.70;53.40
25360;DHT22;13311;51.386;0.016;2023-06-22T14:35:08;32.60;49.90
25360;DHT22;13311;51.386;0.016;2023-06-22T14:40:09;32.70;52.30
25360;DHT22;13311;51.386;0.016;2023-06-22T14:45:10;32.80;52.70
25360;DHT22;13311;51.386;0.016;2023-06-22T14:50:11;32.60;46.70
25360;DHT22;13311;51.386;0.016;2023-06-22T14:55:12;32.60;53.70
25360;DHT22;13311;51.386;0.016;2023-06-22T15:00:13;32.60;51.10
25360;DHT22;13311;51.386;0.016;2023-06-22T15:05:14;32.20;46.90
25360;DHT22;13311;51.386;0.016;2023-06-22T15:10:15;31.90;47.70
25360;DHT22;13311;51.386;0.016;2023-06-22T15:15:16;31.80;47.80
25360;DHT22;13311;51.386;0.016;2023-06-22T15:20:16;31.90;54.00
25360;DHT22;13311;51.386;0.016;2023-06-22T15:25:17;31.90;47.90
25360;DHT22;13311;51.386;0.016;2023-06-22T15:30:18;32.20;53.20
25360;DHT22;13311;51.386;0.016;2023-06-22T15:35:18;31.70;45.10
25360;DHT22;13311;51.386;0.016;2023-06-22T15:40:19;31.40;47.50
25360;DHT22;13311;51.386;0.016;2023-06-22T15:45:20;31.80;54.60
25360;DHT22;13311;51.386;0.016;2023-06-22T15:50:21;31.80;46.10
25360;DHT22;13311;51.386;0.016;2023-06-22T15:55:22;31.80;47.80
25360;DHT22;13311;51.386;0.016;2023-06-22T16:00:23;31.80;46.30
25360;DHT22;13311;51.386;0.016;2023-06-22T16:05:24;31.70;46.10
25360;DHT22;13311;51.386;0.016;2023-06-22T16:10:24;31.90;50.60
25360;DHT22;13311;51.386;0.016;2023-06-22T16:15:25;32.10;51.70
25360;DHT22;13311;51.386;0.016;2023-06-22T16:20:26;32.20;51.90
25360;DHT22;13311;51.386;0.016;2023-06-22T16:25:26;32.20;47.50
25360;DHT22;13311;51.386;0.016;2023-06-22T16:30:27;32.40;52.60
25360;DHT22;13311;51.386;0.016;2023-06-22T16:35:29;32.20;47.50
25360;DHT22;13311;51.386;0.016;2023-06-22T16:40:29;32.20;47.00
25360;DHT22;13311;51.386;0.016;2023-06-22T16:45:30;31.90;46.60
25360;DHT22;13311;51.386;0.016;2023-06-22T16:50:33;31.60;48.40
25360;DHT22;13311;51.386;0.016;2023-06-22T16:55:34;31.30;49.30
25360;DHT22;13311;51.386;0.016;2023-06-22T17:00:37;31.00;50.10
25360;DHT22;13311;51.386;0.016;2023-06-22T17:05:37;30.70;50.10
25360;DHT22;13311;51.386;0.016;2023-06-22T17:10:39;30.40;50.90
25360;DHT22;13311;51.386;0.016;2023-06-22T17:15:41;30.10;52.30
25360;DHT22;13311;51.386;0.016;2023-06-22T17:20:42;29.70;53.40
25360;DHT22;13311;51.386;0.016;2023-06-22T17:25:46;29.60;53.50
25360;DHT22;13311;51.386;0.016;2023-06-22T17:30:47;29.40;50.90
25360;DHT22;13311;51.386;0.016;2023-06-22T17:36:12;29.00;50.40
25360;DHT22;13311;51.386;0.016;2023-06-22T17:41:16;28.70;49.10
25360;DHT22;13311;51.386;0.016;2023-06-22T17:46:16;28.20;49.50
25360;DHT22;13311;51.386;0.016;2023-06-22T17:51:18;28.00;50.50
25360;DHT22;13311;51.386;0.016;2023-06-22T17:56:19;27.50;50.30
25360;DHT22;13311;51.386;0.016;2023-06-22T18:01:35;27.30;51.00
25360;DHT22;13311;51.386;0.016;2023-06-22T18:06:42;27.10;52.20
25360;DHT22;13311;51.386;0.016;2023-06-22T18:11:45;26.60;54.30
25360;DHT22;13311;51.386;0.016;2023-06-22T18:16:49;26.40;56.70
25360;DHT22;13311;51.386;0.016;2023-06-22T18:21:51;26.50;55.60
25360;DHT22;13311;51.386;0.016;2023-06-22T18:26:53;26.50;54.60
25360;DHT22;13311;51.386;0.016;2023-06-22T18:31:54;26.70;55.90
25360;DHT22;13311;51.386;0.016;2023-06-22T18:36:57;26.90;54.90
25360;DHT22;13311;51.386;0.016;2023-06-22T18:42:00;27.10;54.60
25360;DHT22;13311;51.386;0.016;2023-06-22T18:47:04;27.30;59.40
25360;DHT22;13311;51.386;0.016;2023-06-22T18:52:14;27.10;59.60
25360;DHT22;13311;51.386;0.016;2023-06-22T18:57:21;26.90;62.40
25360;DHT22;13311;51.386;0.016;2023-06-22T19:07:58;25.70;62.90
25360;DHT22;13311;51.386;0.016;2023-06-22T19:18:32;25.30;65.80
25360;DHT22;13311;51.386;0.016;2023-06-22T19:23:40;25.40;66.40
25360;DHT22;13311;51.386;0.016;2023-06-22T19:33:46;25.20;67.00
25360;DHT22;13311;51.386;0.016;2023-06-22T19:38:46;25.40;68.80
25360;DHT22;13311;51.386;0.016;2023-06-22T19:43:48;25.40;69.30
25360;DHT22;13311;51.386;0.016;2023-06-22T19:48:50;25.60;70.00
25360;DHT22;13311;51.386;0.016;2023-06-22T19:53:51;25.60;68.70
25360;DHT22;13311;51.386;0.016;2023-06-22T19:58:51;25.80;69.10
25360;DHT22;13311;51.386;0.016;2023-06-22T20:03:55;25.80;69.20
25360;DHT22;13311;51.386;0.016;2023-06-22T20:08:56;25.90;67.90
25360;DHT22;13311;51.386;0.016;2023-06-22T20:14:02;25.90;68.30
25360;DHT22;13311;51.386;0.016;2023-06-22T20:19:07;25.90;67.40
25360;DHT22;13311;51.386;0.016;2023-06-22T20:24:11;25.70;65.60
25360;DHT22;13311;51.386;0.016;2023-06-22T20:29:32;25.70;65.80
25360;DHT22;13311;51.386;0.016;2023-06-22T20:34:44;25.40;66.60
25360;DHT22;13311;51.386;0.016;2023-06-22T20:39:47;25.20;68.30
25360;DHT22;13311;51.386;0.016;2023-06-22T20:44:48;25.30;69.80
25360;DHT22;13311;51.386;0.016;2023-06-22T20:49:50;25.30;69.80
25360;DHT22;13311;51.386;0.016;2023-06-22T20:54:51;25.20;69.00
25360;DHT22;13311;51.386;0.016;2023-06-22T20:59:52;25.20;69.30
25360;DHT22;13311;51.386;0.016;2023-06-22T21:04:53;25.00;68.60
25360;DHT22;13311;51.386;0.016;2023-06-22T21:09:55;24.90;68.30
25360;DHT22;13311;51.386;0.016;2023-06-22T21:14:56;24.90;68.90
25360;DHT22;13311;51.386;0.016;2023-06-22T21:19:56;24.90;71.10
25360;DHT22;13311;51.386;0.016;2023-06-22T21:25:14;24.90;72.30
25360;DHT22;13311;51.386;0.016;2023-06-22T21:30:15;24.90;72.20
25360;DHT22;13311;51.386;0.016;2023-06-22T21:35:16;24.90;71.90
25360;DHT22;13311;51.386;0.016;2023-06-22T21:40:17;25.00;71.80
25360;DHT22;13311;51.386;0.016;2023-06-22T21:45:17;24.90;72.10
25360;DHT22;13311;51.386;0.016;2023-06-22T21:50:19;24.90;72.40
25360;DHT22;13311;51.386;0.016;2023-06-22T21:55:20;24.80;73.10
25360;DHT22;13311;51.386;0.016;2023-06-22T22:00:21;24.70;73.50
25360;DHT22;13311;51.386;0.016;2023-06-22T22:05:21;24.70;74.10
25360;DHT22;13311;51.386;0.016;2023-06-22T22:10:23;24.70;74.20
25360;DHT22;13311;51.386;0.016;2023-06-22T22:15:23;24.60;74.20
25360;DHT22;13311;51.386;0.016;2023-06-22T22:20:24;24.60;74.60
25360;DHT22;13311;51.386;0.016;2023-06-22T22:25:25;24.50;74.40
25360;DHT22;13311;51.386;0.016;2023-06-22T22:30:26;24.40;74.30
25360;DHT22;13311;51.386;0.016;2023-06-22T22:35:27;24.10;75.90
25360;DHT22;13311;51.386;0.016;2023-06-22T22:40:28;23.70;76.80
25360;DHT22;13311;51.386;0.016;2023-06-22T22:45:29;23.40;77.90
25360;DHT22;13311;51.386;0.016;2023-06-22T22:50:30;23.20;79.10
25360;DHT22;13311;51.386;0.016;2023-06-22T22:55:30;22.90;80.40
25360;DHT22;13311;51.386;0.016;2023-06-22T23:00:32;22.70;81.90
25360;DHT22;13311;51.386;0.016;2023-06-22T23:05:32;22.60;82.30
25360;DHT22;13311;51.386;0.016;2023-06-22T23:10:34;22.50;82.80
25360;DHT22;13311;51.386;0.016;2023-06-22T23:15:35;22.50;81.70
25360;DHT22;13311;51.386;0.016;2023-06-22T23:20:36;22.40;81.60
25360;DHT22;13311;51.386;0.016;2023-06-22T23:25:37;22.30;81.40
25360;DHT22;13311;51.386;0.016;2023-06-22T23:30:38;22.20;81.90
25360;DHT22;13311;51.386;0.016;2023-06-22T23:35:39;22.10;81.70
25360;DHT22;13311;51.386;0.016;2023-06-22T23:40:40;22.00;82.30
25360;DHT22;13311;51.386;0.016;2023-06-22T23:45:41;22.00;83.40
25360;DHT22;13311;51.386;0.016;2023-06-22T23:50:42;22.00;82.70
25360;DHT22;13311;51.386;0.016;2023-06-22T23:55:43;21.80;83.00
